Time;durP1;ratioP1;P1;durP2;ratioP2;P2;SDS_P1;SDS_P2;PMS_P1;PMS_P2;Temp;Humidity;BMP_temperature;BMP_pressure;BME280_temperature;BME280_humidity;BME280_pressure;Samples;Min_cycle;Max_cycle;Signal;HPM_P1;HPM_P2
2023/01/01 00:01:10;;;;;;;;;;;14.60;99.90;;;;;;5171518;27;20398;-70
2023/01/01 00:03:36;;;;;;;;;;;14.80;99.90;;;;;;5134773;27;19925;-70
2023/01/01 00:06:08;;;;;;;;;;;14.70;99.90;;;;;;5134738;27;20010;-70
2023/01/01 00:08:34;;;;;;;;;;;14.90;99.90;;;;;;5153653;27;20329;-72
2023/01/01 00:11:01;;;;;;;;;;;14.70;99.90;;;;;;5134899;27;19923;-70
2023/01/01 00:13:26;;;;;;;;;;;14.60;99.90;;;;;;5154691;27;19927;-70
2023/01/01 00:15:52;;;;;;;;;;;14.80;99.90;;;;;;5138218;27;19927;-70
2023/01/01 00:18:17;;;;;;;;;;;14.80;99.90;;;;;;5139335;27;19958;-70
2023/01/01 00:20:43;;;;;;;;;;;14.80;99.90;;;;;;5138514;27;19982;-70
2023/01/01 00:23:08;;;;;;;;;;;14.90;99.90;;;;;;5161155;27;19919;-70
2023/01/01 00:25:34;;;;;;;;;;;15.00;99.90;;;;;;5158521;27;19918;-70
2023/01/01 00:28:00;;;;;;;;;;;14.80;99.90;;;;;;5158664;27;19922;-70
2023/01/01 00:30:26;;;;;;;;;;;14.80;99.90;;;;;;5158633;27;20295;-70
2023/01/01 00:32:51;;;;;;;;;;;14.90;99.90;;;;;;5158670;27;19926;-70
2023/01/01 00:35:17;;;;;;;;;;;14.90;99.90;;;;;;5140099;27;20336;-70
2023/01/01 00:37:42;;;;;;;;;;;14.80;99.90;;;;;;5144120;27;20018;-70
2023/01/01 00:40:08;;;;;;;;;;;14.90;99.90;;;;;;5120838;27;19979;-70
2023/01/01 00:42:33;;;;;;;;;;;14.90;99.90;;;;;;5120717;27;19919;-70
2023/01/01 00:44:59;;;;;;;;;;;14.70;99.90;;;;;;5137758;27;19963;-70
2023/01/01 00:47:24;;;;;;;;;;;14.80;99.90;;;;;;5156217;27;19942;-70
2023/01/01 00:49:50;;;;;;;;;;;14.70;99.90;;;;;;5137668;27;19966;-70
2023/01/01 00:52:15;;;;;;;;;;;14.40;99.90;;;;;;5138653;27;19919;-70
2023/01/01 00:54:41;;;;;;;;;;;14.30;99.90;;;;;;5120428;27;20387;-70
2023/01/01 00:57:06;;;;;;;;;;;14.40;99.90;;;;;;5156077;27;19919;-70
2023/01/01 00:59:32;;;;;;;;;;;14.30;99.90;;;;;;5137630;27;20022;-70
2023/01/01 01:01:57;;;;;;;;;;;14.30;99.90;;;;;;5155914;27;20375;-70
2023/01/01 01:04:23;;;;;;;;;;;14.50;99.90;;;;;;5156131;27;20371;-70
2023/01/01 01:06:48;;;;;;;;;;;14.40;99.90;;;;;;5136997;27;19967;-70
2023/01/01 01:09:14;;;;;;;;;;;14.50;99.90;;;;;;5156968;27;19926;-70
2023/01/01 01:11:39;;;;;;;;;;;14.40;99.90;;;;;;5155906;27;20395;-70
2023/01/01 01:14:05;;;;;;;;;;;14.50;99.90;;;;;;5137242;27;19923;-70
2023/01/01 01:16:32;;;;;;;;;;;14.40;99.90;;;;;;5155336;27;19919;-70
2023/01/01 01:18:59;;;;;;;;;;;14.20;99.90;;;;;;5137315;27;20402;-70
2023/01/01 01:21:25;;;;;;;;;;;14.20;99.90;;;;;;5136770;27;19923;-70
2023/01/01 01:23:51;;;;;;;;;;;14.20;99.90;;;;;;5119159;27;19923;-70
2023/01/01 01:26:18;;;;;;;;;;;14.10;99.90;;;;;;5137766;27;19967;-70
2023/01/01 01:28:44;;;;;;;;;;;14.10;99.90;;;;;;5136820;27;19923;-70
2023/01/01 01:31:09;;;;;;;;;;;13.90;99.90;;;;;;5155413;27;19919;-70
2023/01/01 01:33:35;;;;;;;;;;;13.90;99.90;;;;;;5136711;27;19919;-70
2023/01/01 01:36:02;;;;;;;;;;;13.80;99.90;;;;;;5154796;27;19975;-70
2023/01/01 01:38:27;;;;;;;;;;;13.80;99.90;;;;;;5155346;27;19919;-70
2023/01/01 01:40:53;;;;;;;;;;;;;;;;;;5136605;27;19919;-71
2023/01/01 01:43:31;;;;;;;;;;;13.70;99.90;;;;;;5151385;27;19926;-71
2023/01/01 01:45:58;;;;;;;;;;;13.80;99.90;;;;;;5175557;27;20339;-70
2023/01/01 01:48:24;;;;;;;;;;;13.50;99.90;;;;;;5157619;27;19919;-70
2023/01/01 01:50:51;;;;;;;;;;;13.60;99.90;;;;;;5176004;27;19925;-70
2023/01/01 01:53:25;;;;;;;;;;;13.70;99.90;;;;;;5157008;27;20295;-70
2023/01/01 01:55:51;;;;;;;;;;;;;;;;;;5175471;27;19927;-71
2023/01/01 01:58:17;;;;;;;;;;;13.40;99.90;;;;;;5174232;27;19988;-71
2023/01/01 02:00:42;;;;;;;;;;;13.80;99.90;;;;;;5175437;27;19925;-71
2023/01/01 02:03:10;;;;;;;;;;;13.80;99.90;;;;;;5155016;27;19925;-71
2023/01/01 02:05:36;;;;;;;;;;;13.80;99.90;;;;;;5156942;27;20017;-70
2023/01/01 02:08:02;;;;;;;;;;;13.80;99.90;;;;;;5175658;27;20039;-70
2023/01/01 02:10:28;;;;;;;;;;;13.80;99.90;;;;;;5150456;27;19919;-71
2023/01/01 02:12:54;;;;;;;;;;;13.90;99.90;;;;;;5154560;27;19964;-71
2023/01/01 02:15:21;;;;;;;;;;;13.90;99.90;;;;;;5137140;27;19933;-70
2023/01/01 02:17:53;;;;;;;;;;;13.60;99.90;;;;;;5154903;27;20298;-71
2023/01/01 02:20:37;;;;;;;;;;;13.60;99.90;;;;;;5136790;27;19934;-70
2023/01/01 02:23:21;;;;;;;;;;;13.80;99.90;;;;;;5154482;27;19919;-71
2023/01/01 02:25:47;;;;;;;;;;;13.80;99.90;;;;;;5135648;27;20419;-71
2023/01/01 02:28:12;;;;;;;;;;;13.70;99.90;;;;;;5135715;27;19969;-70
2023/01/01 02:30:40;;;;;;;;;;;13.60;99.90;;;;;;5136138;27;20333;-70
2023/01/01 02:33:08;;;;;;;;;;;13.90;99.90;;;;;;5136758;27;19926;-70
2023/01/01 02:35:37;;;;;;;;;;;13.50;99.90;;;;;;5172263;27;20382;-70
2023/01/01 02:38:12;;;;;;;;;;;13.60;99.90;;;;;;5175156;27;19925;-70
2023/01/01 02:40:54;;;;;;;;;;;13.50;99.90;;;;;;5139472;27;19919;-70
2023/01/01 02:43:19;;;;;;;;;;;13.60;99.90;;;;;;5175138;27;19964;-70
2023/01/01 02:45:45;;;;;;;;;;;;;;;;;;5138735;27;19918;-70
2023/01/01 02:48:29;;;;;;;;;;;13.40;99.90;;;;;;5173165;27;20359;-71
2023/01/01 02:50:56;;;;;;;;;;;13.30;99.90;;;;;;5156110;27;19945;-71
2023/01/01 02:53:27;;;;;;;;;;;13.30;99.90;;;;;;5173577;27;19979;-70
2023/01/01 02:56:10;;;;;;;;;;;13.30;99.90;;;;;;5155806;27;20013;-70
2023/01/01 03:01:43;;;;;;;;;;;13.20;99.90;;;;;;5174735;27;19919;-70
2023/01/01 03:04:08;;;;;;;;;;;13.40;99.90;;;;;;5156244;27;19922;-70
2023/01/01 03:06:52;;;;;;;;;;;13.20;99.90;;;;;;5153826;27;19919;-70
2023/01/01 03:09:30;;;;;;;;;;;13.40;99.90;;;;;;5156372;27;20002;-70
2023/01/01 03:11:59;;;;;;;;;;;13.40;99.90;;;;;;5174461;27;20112;-70
2023/01/01 03:14:24;;;;;;;;;;;;;;;;;;5154571;27;20451;-70
2023/01/01 03:16:59;;;;;;;;;;;13.20;99.90;;;;;;5153332;27;20014;-70
2023/01/01 03:19:28;;;;;;;;;;;13.40;99.90;;;;;;5118126;27;19919;-70
2023/01/01 03:22:05;;;;;;;;;;;13.30;99.90;;;;;;5136423;27;19955;-70
2023/01/01 03:24:31;;;;;;;;;;;;;;;;;;5135024;27;19919;-70
2023/01/01 03:26:58;;;;;;;;;;;13.20;99.90;;;;;;5153132;27;19919;-70
2023/01/01 03:29:27;;;;;;;;;;;13.10;99.90;;;;;;5135218;27;20009;-70
2023/01/01 03:31:54;;;;;;;;;;;13.50;99.90;;;;;;5134784;27;19927;-70
2023/01/01 03:34:20;;;;;;;;;;;;;;;;;;5117980;27;20291;-71
2023/01/01 03:36:48;;;;;;;;;;;12.90;99.90;;;;;;5117396;27;19919;-71
2023/01/01 03:39:19;;;;;;;;;;;12.90;99.90;;;;;;5136339;27;19963;-71
2023/01/01 03:42:01;;;;;;;;;;;12.70;99.90;;;;;;5136132;27;19982;-71
2023/01/01 03:44:32;;;;;;;;;;;13.00;99.90;;;;;;5135261;27;19919;-71
2023/01/01 03:46:58;;;;;;;;;;;12.90;99.90;;;;;;5135767;27;20078;-71
2023/01/01 03:49:24;;;;;;;;;;;12.70;99.90;;;;;;5138838;27;19926;-71
2023/01/01 03:52:08;;;;;;;;;;;12.70;99.90;;;;;;5138821;27;20301;-71
2023/01/01 03:54:52;;;;;;;;;;;12.70;99.90;;;;;;5121642;27;19923;-71
2023/01/01 03:57:20;;;;;;;;;;;12.90;99.90;;;;;;5139596;27;19971;-70
2023/01/01 03:59:57;;;;;;;;;;;12.80;99.90;;;;;;5148650;27;19919;-71
2023/01/01 04:02:26;;;;;;;;;;;12.90;99.90;;;;;;5178353;27;19966;-71
2023/01/01 04:04:52;;;;;;;;;;;;;;;;;;5141946;27;20009;-71
2023/01/01 04:07:18;;;;;;;;;;;;;;;;;;5159122;27;19974;-71
2023/01/01 04:09:47;;;;;;;;;;;13.40;99.90;;;;;;5159423;27;19950;-71
2023/01/01 04:12:14;;;;;;;;;;;13.40;99.90;;;;;;5176077;27;19918;-71
2023/01/01 04:14:42;;;;;;;;;;;13.30;99.90;;;;;;5142103;27;20456;-71
2023/01/01 04:17:09;;;;;;;;;;;13.40;99.90;;;;;;5158901;27;20032;-71
2023/01/01 04:19:35;;;;;;;;;;;;;;;;;;5177922;27;19925;-71
2023/01/01 04:22:01;;;;;;;;;;;;;;;;;;5162267;27;19919;-71
2023/01/01 04:24:26;;;;;;;;;;;13.40;99.90;;;;;;5138318;27;20411;-71
2023/01/01 04:26:52;;;;;;;;;;;13.50;99.90;;;;;;5156391;27;19930;-71
2023/01/01 04:29:17;;;;;;;;;;;13.50;99.90;;;;;;5158118;27;20375;-71
2023/01/01 04:31:43;;;;;;;;;;;13.40;99.90;;;;;;5168602;27;19925;-71
2023/01/01 04:34:08;;;;;;;;;;;13.50;99.90;;;;;;5177626;27;19918;-71
2023/01/01 04:36:34;;;;;;;;;;;13.60;99.90;;;;;;5158957;27;20402;-70
2023/01/01 04:39:00;;;;;;;;;;;13.10;99.90;;;;;;5159164;27;19967;-71
2023/01/01 04:41:25;;;;;;;;;;;13.20;99.90;;;;;;5177488;27;19925;-70
2023/01/01 04:43:51;;;;;;;;;;;13.70;99.90;;;;;;5141616;27;20291;-70
2023/01/01 04:46:17;;;;;;;;;;;13.30;99.90;;;;;;5156802;27;19926;-70
2023/01/01 04:48:43;;;;;;;;;;;13.40;99.90;;;;;;5177313;27;19961;-70
2023/01/01 04:51:09;;;;;;;;;;;13.70;99.90;;;;;;5177457;27;20395;-70
2023/01/01 04:53:35;;;;;;;;;;;13.30;99.90;;;;;;5149777;27;19926;-70
2023/01/01 04:56:04;;;;;;;;;;;13.60;99.90;;;;;;5137394;27;19923;-70
2023/01/01 04:58:30;;;;;;;;;;;13.30;99.90;;;;;;5137462;27;20028;-70
2023/01/01 05:00:55;;;;;;;;;;;13.20;99.90;;;;;;5156353;27;20066;-70
2023/01/01 05:03:21;;;;;;;;;;;13.00;99.90;;;;;;5157383;27;19919;-70
2023/01/01 05:05:48;;;;;;;;;;;13.20;99.90;;;;;;5170982;27;20489;-71
2023/01/01 05:08:14;;;;;;;;;;;13.20;99.90;;;;;;5176961;27;19971;-71
2023/01/01 05:10:40;;;;;;;;;;;;;;;;;;5140875;27;20371;-70
2023/01/01 05:13:07;;;;;;;;;;;13.10;99.90;;;;;;5158042;27;19922;-70
2023/01/01 05:15:34;;;;;;;;;;;13.30;99.90;;;;;;5176596;27;19929;-70
2023/01/01 05:17:59;;;;;;;;;;;13.10;99.90;;;;;;5176758;27;19919;-70
2023/01/01 05:20:25;;;;;;;;;;;13.10;99.90;;;;;;5156167;27;19926;-70
2023/01/01 05:22:50;;;;;;;;;;;13.40;99.90;;;;;;5140690;27;20395;-70
2023/01/01 05:25:16;;;;;;;;;;;13.20;99.90;;;;;;5176117;27;20268;-70
2023/01/01 05:27:42;;;;;;;;;;;;;;;;;;5176575;27;19919;-70
2023/01/01 05:30:07;;;;;;;;;;;13.50;99.90;;;;;;5157647;27;19977;-70
2023/01/01 05:32:33;;;;;;;;;;;;;;;;;;5157435;27;20396;-70
2023/01/01 05:34:59;;;;;;;;;;;;;;;;;;5176472;27;20307;-70
2023/01/01 05:37:25;;;;;;;;;;;13.40;99.90;;;;;;5155668;27;20394;-70
2023/01/01 05:39:50;;;;;;;;;;;13.10;99.90;;;;;;5176200;27;19918;-70
2023/01/01 05:42:17;;;;;;;;;;;13.30;99.90;;;;;;5157785;27;19919;-71
2023/01/01 05:44:43;;;;;;;;;;;13.20;99.90;;;;;;5157742;27;19919;-71
2023/01/01 05:47:08;;;;;;;;;;;13.20;99.90;;;;;;5152305;27;20411;-71
2023/01/01 05:49:35;;;;;;;;;;;;;;;;;;5136671;27;19919;-71
2023/01/01 05:52:01;;;;;;;;;;;;;;;;;;5122025;27;19919;-71
2023/01/01 05:54:27;;;;;;;;;;;;;;;;;;5149481;27;20006;-71
2023/01/01 05:56:53;;;;;;;;;;;;;;;;;;5119044;27;19938;-71
2023/01/01 05:59:18;;;;;;;;;;;12.90;99.90;;;;;;5136716;27;19975;-71
2023/01/01 06:01:43;;;;;;;;;;;13.10;99.90;;;;;;5136379;27;20379;-71
2023/01/01 06:04:09;;;;;;;;;;;;;;;;;;5136316;27;19970;-71
2023/01/01 06:06:35;;;;;;;;;;;12.90;99.90;;;;;;5154399;27;19987;-71
2023/01/01 06:09:02;;;;;;;;;;;12.80;99.90;;;;;;5137378;27;20409;-71
2023/01/01 06:11:28;;;;;;;;;;;12.80;99.90;;;;;;5118045;27;19926;-71
2023/01/01 06:13:54;;;;;;;;;;;;;;;;;;5154873;27;19923;-71
2023/01/01 06:16:20;;;;;;;;;;;12.70;99.90;;;;;;5154297;27;19934;-71
2023/01/01 06:18:45;;;;;;;;;;;12.90;99.90;;;;;;5136107;27;19970;-71
2023/01/01 06:21:12;;;;;;;;;;;12.90;99.90;;;;;;5154766;27;19922;-71
2023/01/01 06:23:38;;;;;;;;;;;12.80;99.90;;;;;;5118177;27;19926;-71
2023/01/01 06:26:04;;;;;;;;;;;12.70;99.90;;;;;;5143293;27;19919;-71
2023/01/01 06:28:30;;;;;;;;;;;12.80;99.90;;;;;;5156617;27;19945;-71
2023/01/01 06:30:56;;;;;;;;;;;;;;;;;;5175373;27;20383;-71
2023/01/01 06:33:21;;;;;;;;;;;;;;;;;;5138992;27;19925;-71
2023/01/01 06:35:47;;;;;;;;;;;12.70;99.90;;;;;;5156249;27;19923;-71
2023/01/01 06:38:12;;;;;;;;;;;12.60;99.90;;;;;;5156418;27;19918;-71
2023/01/01 06:40:38;;;;;;;;;;;12.70;99.90;;;;;;5146024;27;19919;-71
2023/01/01 06:43:04;;;;;;;;;;;;;;;;;;5155948;27;19918;-70
2023/01/01 06:45:30;;;;;;;;;;;;;;;;;;5138741;27;20308;-71
2023/01/01 06:47:56;;;;;;;;;;;12.60;99.90;;;;;;5175184;27;19958;-71
2023/01/01 06:50:21;;;;;;;;;;;12.50;99.90;;;;;;5156508;27;20006;-71
2023/01/01 06:52:47;;;;;;;;;;;;;;;;;;5174883;27;19923;-71
2023/01/01 06:55:13;;;;;;;;;;;;;;;;;;5174622;27;20418;-71
2023/01/01 06:57:39;;;;;;;;;;;;;;;;;;5139436;27;19919;-70
2023/01/01 07:00:05;;;;;;;;;;;12.60;99.90;;;;;;5135553;27;19919;-71
2023/01/01 07:02:30;;;;;;;;;;;12.30;99.90;;;;;;5135442;27;19930;-71
2023/01/01 07:04:56;;;;;;;;;;;12.70;99.90;;;;;;5154038;27;19919;-71
2023/01/01 07:07:21;;;;;;;;;;;12.70;99.90;;;;;;5135011;27;19949;-71
2023/01/01 07:09:47;;;;;;;;;;;;;;;;;;5135502;27;20291;-71
2023/01/01 07:12:12;;;;;;;;;;;12.50;99.90;;;;;;5153593;27;20363;-71
2023/01/01 07:14:38;;;;;;;;;;;12.60;99.90;;;;;;5134441;27;19922;-71
2023/01/01 07:17:04;;;;;;;;;;;;;;;;;;5174039;27;19919;-71
2023/01/01 07:19:30;;;;;;;;;;;;;;;;;;5155904;27;20113;-71
2023/01/01 07:21:55;;;;;;;;;;;12.40;99.90;;;;;;5175223;27;20021;-71
2023/01/01 07:24:21;;;;;;;;;;;12.50;99.90;;;;;;5178971;27;20455;-71
2023/01/01 07:26:47;;;;;;;;;;;12.40;99.90;;;;;;5159704;27;19925;-71
2023/01/01 07:29:13;;;;;;;;;;;12.50;99.90;;;;;;5160091;27;19930;-71
2023/01/01 07:31:39;;;;;;;;;;;12.40;99.90;;;;;;5158238;27;19919;-71
2023/01/01 07:34:05;;;;;;;;;;;12.20;99.90;;;;;;5142897;27;20050;-71
2023/01/01 07:36:31;;;;;;;;;;;12.40;99.90;;;;;;5159403;27;20375;-71
2023/01/01 07:38:56;;;;;;;;;;;12.40;99.90;;;;;;5159896;27;19918;-71
2023/01/01 07:41:22;;;;;;;;;;;12.50;99.90;;;;;;5178624;27;19923;-71
2023/01/01 07:43:47;;;;;;;;;;;12.40;99.90;;;;;;5160061;27;19925;-71
2023/01/01 07:46:15;;;;;;;;;;;;;;;;;;5139643;27;20509;-71
2023/01/01 07:48:41;;;;;;;;;;;12.40;99.90;;;;;;5139334;27;19930;-71
2023/01/01 07:51:06;;;;;;;;;;;12.50;99.90;;;;;;5138835;27;19919;-71
2023/01/01 07:53:31;;;;;;;;;;;12.40;99.90;;;;;;5138767;27;19959;-71
2023/01/01 07:55:57;;;;;;;;;;;12.30;99.90;;;;;;5138637;27;19923;-71
2023/01/01 07:58:22;;;;;;;;;;;12.30;99.90;;;;;;5139051;27;20376;-71
2023/01/01 08:00:48;;;;;;;;;;;;;;;;;;5121539;27;19967;-71
2023/01/01 08:03:14;;;;;;;;;;;12.20;99.90;;;;;;5158546;27;19963;-71
2023/01/01 08:05:40;;;;;;;;;;;;;;;;;;5138467;27;19970;-71
2023/01/01 08:08:06;;;;;;;;;;;;;;;;;;5157027;27;20336;-71
2023/01/01 08:10:32;;;;;;;;;;;12.30;99.90;;;;;;5129516;27;19919;-71
2023/01/01 08:12:58;;;;;;;;;;;12.50;99.90;;;;;;5148969;27;19922;-71
2023/01/01 08:15:23;;;;;;;;;;;12.50;99.90;;;;;;5167547;27;19927;-71
2023/01/01 08:17:49;;;;;;;;;;;;;;;;;;5147555;27;19919;-71
2023/01/01 08:20:15;;;;;;;;;;;12.40;99.90;;;;;;5148579;27;19918;-71
2023/01/01 08:22:40;;;;;;;;;;;12.50;99.90;;;;;;5148422;27;19969;-71
2023/01/01 08:25:07;;;;;;;;;;;;;;;;;;5167670;27;19978;-71
2023/01/01 08:27:32;;;;;;;;;;;12.30;99.90;;;;;;5146255;27;19928;-71
2023/01/01 08:29:58;;;;;;;;;;;12.40;99.90;;;;;;5165762;27;19918;-71
2023/01/01 08:32:23;;;;;;;;;;;12.40;99.90;;;;;;5172725;27;20009;-71
2023/01/01 08:34:49;;;;;;;;;;;12.40;99.90;;;;;;5158132;27;19954;-70
2023/01/01 08:37:15;;;;;;;;;;;;;;;;;;5145338;27;19919;-70
2023/01/01 08:39:40;;;;;;;;;;;12.30;99.90;;;;;;5177148;27;19965;-70
2023/01/01 08:42:06;;;;;;;;;;;12.40;99.90;;;;;;5158830;27;19975;-70
2023/01/01 08:44:31;;;;;;;;;;;12.10;99.90;;;;;;5177567;27;19919;-70
2023/01/01 08:46:57;;;;;;;;;;;;;;;;;;5177288;27;19919;-70
2023/01/01 08:49:23;;;;;;;;;;;;;;;;;;5139009;27;19919;-70
2023/01/01 08:51:49;;;;;;;;;;;;;;;;;;5143834;27;19919;-70
2023/01/01 08:54:15;;;;;;;;;;;12.20;99.90;;;;;;5137832;27;19919;-70
2023/01/01 08:56:40;;;;;;;;;;;12.50;99.90;;;;;;5155762;27;19919;-71
2023/01/01 08:59:06;;;;;;;;;;;;;;;;;;5139007;27;20138;-71
2023/01/01 09:01:32;;;;;;;;;;;;;;;;;;5143330;27;20011;-71
2023/01/01 09:03:57;;;;;;;;;;;12.30;99.90;;;;;;5144352;27;19930;-71
2023/01/01 09:06:23;;;;;;;;;;;12.30;99.90;;;;;;5127916;27;19949;-72
2023/01/01 09:08:50;;;;;;;;;;;;;;;;;;5164246;27;20288;-71
2023/01/01 09:11:23;;;;;;;;;;;12.30;99.90;;;;;;5117192;27;20390;-71
2023/01/01 09:13:48;;;;;;;;;;;12.30;99.90;;;;;;5144879;27;19919;-71
2023/01/01 09:16:14;;;;;;;;;;;12.30;99.90;;;;;;5135880;27;19930;-71
2023/01/01 09:18:39;;;;;;;;;;;;;;;;;;5156271;27;19923;-71
2023/01/01 09:21:05;;;;;;;;;;;;;;;;;;5154820;27;19919;-71
2023/01/01 09:23:31;;;;;;;;;;;12.30;99.90;;;;;;5155690;27;19923;-72
2023/01/01 09:26:01;;;;;;;;;;;12.50;99.90;;;;;;5118665;27;20512;-71
2023/01/01 09:28:28;;;;;;;;;;;;;;;;;;5148217;27;20286;-70
2023/01/01 09:30:54;;;;;;;;;;;;;;;;;;5166461;27;19919;-70
2023/01/01 09:33:19;;;;;;;;;;;12.50;99.90;;;;;;5126945;27;20065;-71
2023/01/01 09:35:45;;;;;;;;;;;12.40;99.90;;;;;;5142516;27;19923;-71
2023/01/01 09:38:10;;;;;;;;;;;12.30;99.90;;;;;;5127911;27;19919;-71
2023/01/01 09:40:42;;;;;;;;;;;12.10;99.90;;;;;;5129330;27;19919;-70
2023/01/01 09:43:20;;;;;;;;;;;12.40;99.90;;;;;;5152855;27;19926;-70
2023/01/01 09:45:49;;;;;;;;;;;12.50;99.90;;;;;;5147303;27;19918;-70
2023/01/01 09:48:14;;;;;;;;;;;12.50;99.90;;;;;;5160363;27;19957;-70
2023/01/01 09:50:41;;;;;;;;;;;12.30;99.90;;;;;;5164917;27;20411;-71
2023/01/01 09:53:07;;;;;;;;;;;;;;;;;;5138423;27;19971;-71
2023/01/01 09:55:33;;;;;;;;;;;12.40;99.90;;;;;;5165183;27;20018;-70
2023/01/01 09:57:58;;;;;;;;;;;12.50;99.90;;;;;;5157259;27;19926;-70
2023/01/01 10:00:25;;;;;;;;;;;12.40;99.90;;;;;;5132891;27;19919;-71
2023/01/01 10:02:56;;;;;;;;;;;12.50;99.90;;;;;;5144175;27;19923;-71
2023/01/01 10:05:22;;;;;;;;;;;;;;;;;;5175486;27;19923;-71
2023/01/01 10:07:51;;;;;;;;;;;12.70;99.90;;;;;;5157094;27;20021;-71
2023/01/01 10:10:17;;;;;;;;;;;;;;;;;;5157149;27;19919;-71
2023/01/01 10:12:43;;;;;;;;;;;;;;;;;;5125332;27;19941;-70
2023/01/01 10:15:09;;;;;;;;;;;;;;;;;;5136023;27;20482;-71
2023/01/01 10:17:38;;;;;;;;;;;12.60;99.90;;;;;;5136150;27;20103;-71
2023/01/01 10:20:10;;;;;;;;;;;12.60;99.90;;;;;;5119288;27;19987;-71
2023/01/01 10:22:38;;;;;;;;;;;12.70;99.90;;;;;;5154752;27;19926;-71
2023/01/01 10:25:04;;;;;;;;;;;;;;;;;;5118760;27;19971;-71
2023/01/01 10:27:36;;;;;;;;;;;12.50;99.90;;;;;;5135847;27;20422;-71
2023/01/01 10:30:02;;;;;;;;;;;;;;;;;;5172263;27;20013;-71
2023/01/01 10:32:27;;;;;;;;;;;12.80;99.90;;;;;;5156460;27;20390;-70
2023/01/01 10:34:53;;;;;;;;;;;12.60;99.90;;;;;;5139273;27;19929;-71
2023/01/01 10:37:19;;;;;;;;;;;12.70;99.90;;;;;;5147526;27;19997;-70
2023/01/01 10:39:45;;;;;;;;;;;;;;;;;;5135823;27;19919;-71
2023/01/01 10:42:12;;;;;;;;;;;12.40;99.90;;;;;;5135716;27;20395;-70
2023/01/01 10:44:38;;;;;;;;;;;;;;;;;;5135685;27;19923;-70
2023/01/01 10:47:24;;;;;;;;;;;12.60;99.90;;;;;;5155061;27;20048;-70
2023/01/01 10:49:52;;;;;;;;;;;12.50;99.90;;;;;;5174574;27;19970;-71
2023/01/01 10:52:20;;;;;;;;;;;12.60;99.90;;;;;;5174919;27;19919;-71
2023/01/01 10:54:46;;;;;;;;;;;12.80;99.90;;;;;;5167620;27;19965;-71
2023/01/01 10:57:16;;;;;;;;;;;12.80;99.90;;;;;;5154239;27;19954;-71
2023/01/01 10:59:42;;;;;;;;;;;12.50;99.90;;;;;;5154291;27;19919;-70
2023/01/01 11:02:16;;;;;;;;;;;12.90;99.90;;;;;;5135541;27;19925;-71
2023/01/01 11:04:42;;;;;;;;;;;12.60;99.90;;;;;;5135393;27;19919;-70
2023/01/01 11:07:08;;;;;;;;;;;;;;;;;;5135093;27;20285;-71
2023/01/01 11:09:37;;;;;;;;;;;12.70;99.90;;;;;;5153969;27;19990;-70
2023/01/01 11:12:04;;;;;;;;;;;12.80;99.90;;;;;;5173380;27;19918;-70
2023/01/01 11:14:37;;;;;;;;;;;12.60;99.90;;;;;;5174634;27;19933;-70
2023/01/01 11:17:02;;;;;;;;;;;12.80;99.90;;;;;;5174418;27;20041;-70
2023/01/01 11:19:32;;;;;;;;;;;12.70;99.90;;;;;;5155983;27;19919;-70
2023/01/01 11:21:59;;;;;;;;;;;12.90;99.90;;;;;;5156164;27;20321;-72
2023/01/01 11:24:26;;;;;;;;;;;12.60;99.90;;;;;;5155824;27;19918;-72
2023/01/01 11:26:52;;;;;;;;;;;12.80;99.90;;;;;;5153403;27;19965;-71
2023/01/01 11:29:18;;;;;;;;;;;;;;;;;;5140652;27;19919;-71
2023/01/01 11:31:45;;;;;;;;;;;12.80;99.90;;;;;;5155753;27;19966;-71
2023/01/01 11:34:27;;;;;;;;;;;12.70;99.90;;;;;;5174554;27;20322;-71
2023/01/01 11:37:06;;;;;;;;;;;12.60;99.90;;;;;;5155513;27;19922;-72
2023/01/01 11:39:32;;;;;;;;;;;;;;;;;;5156608;27;19919;-71
2023/01/01 11:41:58;;;;;;;;;;;12.80;99.90;;;;;;5156105;27;19919;-71
2023/01/01 11:44:26;;;;;;;;;;;12.80;99.90;;;;;;5144280;27;20299;-71
2023/01/01 11:46:52;;;;;;;;;;;12.90;99.90;;;;;;5135119;27;19928;-71
2023/01/01 11:49:21;;;;;;;;;;;12.80;99.90;;;;;;5165024;27;19918;-71
2023/01/01 11:51:47;;;;;;;;;;;;;;;;;;5138311;27;20017;-71
2023/01/01 11:54:13;;;;;;;;;;;;;;;;;;5174501;27;20084;-71
2023/01/01 11:56:39;;;;;;;;;;;;;;;;;;5155400;27;19925;-71
2023/01/01 11:59:15;;;;;;;;;;;12.80;99.90;;;;;;5155767;27;19918;-71
2023/01/01 12:01:45;;;;;;;;;;;13.10;99.90;;;;;;5172927;27;20323;-71
2023/01/01 12:04:17;;;;;;;;;;;13.00;99.90;;;;;;5138316;27;20017;-71
2023/01/01 12:07:03;;;;;;;;;;;13.20;99.90;;;;;;5155217;27;19962;-71
2023/01/01 12:09:51;;;;;;;;;;;13.20;99.90;;;;;;5158567;27;19970;-71
2023/01/01 12:12:21;;;;;;;;;;;13.00;99.90;;;;;;5159237;27;19919;-71
2023/01/01 12:14:51;;;;;;;;;;;13.10;99.90;;;;;;5159355;27;20046;-71
2023/01/01 12:17:23;;;;;;;;;;;13.00;99.90;;;;;;5154730;27;19938;-71
2023/01/01 12:19:51;;;;;;;;;;;13.20;99.90;;;;;;5157024;27;20399;-71
2023/01/01 12:22:17;;;;;;;;;;;13.20;99.90;;;;;;5138355;27;19926;-71
2023/01/01 12:24:44;;;;;;;;;;;13.20;99.90;;;;;;5122527;27;19919;-71
2023/01/01 12:27:18;;;;;;;;;;;13.00;99.90;;;;;;5138342;27;20292;-71
2023/01/01 12:30:03;;;;;;;;;;;13.10;99.90;;;;;;5138353;27;20303;-71
2023/01/01 12:32:31;;;;;;;;;;;13.00;99.90;;;;;;5156872;27;19926;-71
2023/01/01 12:35:06;;;;;;;;;;;13.30;99.90;;;;;;5148406;27;19966;-71
2023/01/01 12:37:32;;;;;;;;;;;;;;;;;;5141396;27;19926;-71
2023/01/01 12:39:58;;;;;;;;;;;;;;;;;;5177794;27;19918;-71
2023/01/01 12:42:35;;;;;;;;;;;13.00;99.90;;;;;;5137403;27;20188;-71
2023/01/01 12:45:01;;;;;;;;;;;13.30;99.90;;;;;;5156688;27;19919;-71
2023/01/01 12:47:36;;;;;;;;;;;13.30;99.90;;;;;;5138013;27;19919;-71
2023/01/01 12:50:09;;;;;;;;;;;13.10;99.90;;;;;;5156788;27;19919;-71
2023/01/01 12:52:35;;;;;;;;;;;;;;;;;;5157651;27;19925;-71
2023/01/01 12:55:19;;;;;;;;;;;13.10;99.90;;;;;;5176325;27;20009;-71
2023/01/01 12:57:45;;;;;;;;;;;;;;;;;;5158531;27;19919;-71
2023/01/01 13:00:17;;;;;;;;;;;13.10;99.90;;;;;;5158664;27;19946;-71
2023/01/01 13:02:51;;;;;;;;;;;13.00;99.90;;;;;;5141056;27;19919;-71
2023/01/01 13:05:22;;;;;;;;;;;13.00;99.90;;;;;;5158068;27;19918;-71
2023/01/01 13:07:50;;;;;;;;;;;13.00;99.90;;;;;;5155000;27;20300;-71
2023/01/01 13:10:15;;;;;;;;;;;;;;;;;;5133046;27;19918;-71
2023/01/01 13:12:41;;;;;;;;;;;13.30;99.90;;;;;;5158408;27;19925;-71
2023/01/01 13:15:26;;;;;;;;;;;13.00;99.90;;;;;;5176802;27;20303;-72
2023/01/01 13:17:51;;;;;;;;;;;13.10;99.90;;;;;;5158370;27;19919;-72
2023/01/01 13:20:25;;;;;;;;;;;13.10;99.90;;;;;;5176496;27;19941;-72
2023/01/01 13:22:50;;;;;;;;;;;12.90;99.90;;;;;;5158217;27;19976;-72
2023/01/01 13:25:16;;;;;;;;;;;13.20;99.90;;;;;;5174796;27;19962;-71
2023/01/01 13:27:58;;;;;;;;;;;13.00;99.90;;;;;;5141103;27;19972;-72
2023/01/01 13:30:36;;;;;;;;;;;12.80;99.90;;;;;;5158021;27;19925;-72
2023/01/01 13:33:16;;;;;;;;;;;13.10;99.90;;;;;;5176781;27;19918;-72
2023/01/01 13:35:41;;;;;;;;;;;13.00;99.90;;;;;;5176387;27;20364;-72
2023/01/01 13:38:26;;;;;;;;;;;12.90;99.90;;;;;;5155104;27;19958;-72
2023/01/01 13:40:52;;;;;;;;;;;;;;;;;;5155488;27;20368;-70
2023/01/01 13:43:19;;;;;;;;;;;12.80;99.90;;;;;;5174628;27;19925;-70
2023/01/01 13:45:52;;;;;;;;;;;12.90;99.90;;;;;;5157728;27;19943;-71
2023/01/01 13:48:29;;;;;;;;;;;12.70;99.90;;;;;;5140499;27;20014;-72
2023/01/01 13:51:13;;;;;;;;;;;13.00;99.90;;;;;;5157594;27;20213;-72
2023/01/01 13:54:06;;;;;;;;;;;12.70;99.90;;;;;;5176043;27;19919;-72
2023/01/01 13:56:46;;;;;;;;;;;13.10;99.90;;;;;;5169605;27;19931;-72
2023/01/01 13:59:11;;;;;;;;;;;12.80;99.90;;;;;;5155412;27;19919;-72
2023/01/01 14:02:09;;;;;;;;;;;12.70;99.90;;;;;;5136534;27;19926;-72
2023/01/01 14:04:43;;;;;;;;;;;12.70;99.90;;;;;;5065613;27;20142;-72
2023/01/01 14:07:09;;;;;;;;;;;;;;;;;;5136538;27;19980;-72
2023/01/01 14:09:35;;;;;;;;;;;13.00;99.90;;;;;;5156384;27;19919;-72
2023/01/01 14:12:15;;;;;;;;;;;12.70;99.90;;;;;;5166224;27;19919;-72
2023/01/01 14:14:40;;;;;;;;;;;12.80;99.90;;;;;;5157443;27;19927;-72
2023/01/01 14:17:06;;;;;;;;;;;12.60;99.90;;;;;;5161263;27;19926;-72
2023/01/01 14:19:32;;;;;;;;;;;;;;;;;;5153450;27;19929;-72
2023/01/01 14:21:58;;;;;;;;;;;12.70;99.90;;;;;;5157004;27;19919;-72
2023/01/01 14:24:24;;;;;;;;;;;12.60;99.90;;;;;;5156854;27;19918;-72
2023/01/01 14:26:49;;;;;;;;;;;12.60;99.90;;;;;;5156447;27;20017;-72
2023/01/01 14:29:24;;;;;;;;;;;12.60;99.90;;;;;;5157506;27;19919;-72
2023/01/01 14:31:50;;;;;;;;;;;12.60;99.90;;;;;;5153333;27;19923;-72
2023/01/01 14:34:26;;;;;;;;;;;12.50;99.90;;;;;;5135764;27;19925;-72
2023/01/01 14:36:53;;;;;;;;;;;12.50;99.90;;;;;;5118449;27;19923;-72
2023/01/01 14:39:23;;;;;;;;;;;12.70;99.90;;;;;;5154457;27;20341;-72
2023/01/01 14:41:49;;;;;;;;;;;12.40;99.90;;;;;;5135791;27;19919;-72
2023/01/01 14:44:16;;;;;;;;;;;12.50;99.90;;;;;;5156417;27;19919;-72
2023/01/01 14:46:42;;;;;;;;;;;;;;;;;;5141078;27;20044;-71
2023/01/01 14:49:08;;;;;;;;;;;;;;;;;;5175210;27;19918;-70
2023/01/01 14:51:33;;;;;;;;;;;12.50;99.90;;;;;;5156310;27;20516;-70